sensor_id;sensor_type;location;lat;lon;timestamp;pressure;altitude;pressure_sealevel;temperature;humidity
32243;BME280;18731;42.830;24.390;2023-08-06T03:01:20;93367.38;;;20.42;76.70
32243;BME280;18731;42.830;24.390;2023-08-06T03:03:48;93329.84;;;20.21;76.96
32243;BME280;18731;42.830;24.390;2023-08-06T03:06:14;93293.56;;;20.15;77.68
32243;BME280;18731;42.830;24.390;2023-08-06T03:08:39;93292.44;;;20.32;76.93
32243;BME280;18731;42.830;24.390;2023-08-06T03:11:05;93297.75;;;20.00;78.09
32243;BME280;18731;42.830;24.390;2023-08-06T03:13:31;93359.94;;;19.83;78.83
32243;BME280;18731;42.830;24.390;2023-08-06T03:15:58;93352.09;;;19.89;79.56
32243;BME280;18731;42.830;24.390;2023-08-06T03:18:24;93368.88;;;19.80;81.60
32243;BME280;18731;42.830;24.390;2023-08-06T03:20:51;93384.00;;;19.78;81.78
32243;BME280;18731;42.830;24.390;2023-08-06T03:23:17;93392.41;;;19.83;81.77
32243;BME280;18731;42.830;24.390;2023-08-06T03:25:43;93389.25;;;19.88;80.88
32243;BME280;18731;42.830;24.390;2023-08-06T03:28:09;93379.59;;;19.87;81.41
32243;BME280;18731;42.830;24.390;2023-08-06T03:30:35;93377.94;;;19.94;80.54
32243;BME280;18731;42.830;24.390;2023-08-06T03:33:00;93367.88;;;19.94;80.42
32243;BME280;18731;42.830;24.390;2023-08-06T03:35:26;93357.34;;;19.76;81.07
32243;BME280;18731;42.830;24.390;2023-08-06T03:37:51;93369.28;;;19.79;80.76
32243;BME280;18731;42.830;24.390;2023-08-06T03:40:17;93359.88;;;19.64;82.21
32243;BME280;18731;42.830;24.390;2023-08-06T03:42:43;93368.22;;;19.73;81.44
32243;BME280;18731;42.830;24.390;2023-08-06T03:45:11;93366.75;;;19.91;82.01
32243;BME280;18731;42.830;24.390;2023-08-06T03:47:37;93363.16;;;19.98;81.98
32243;BME280;18731;42.830;24.390;2023-08-06T03:50:03;93355.31;;;20.04;81.46
32243;BME280;18731;42.830;24.390;2023-08-06T03:52:28;93358.59;;;20.15;80.96
32243;BME280;18731;42.830;24.390;2023-08-06T03:54:54;93367.53;;;20.12;81.19
32243;BME280;18731;42.830;24.390;2023-08-06T03:57:19;93353.31;;;20.08;80.86
32243;BME280;18731;42.830;24.390;2023-08-06T03:59:45;93359.97;;;20.23;81.92
32243;BME280;18731;42.830;24.390;2023-08-06T04:02:10;93358.72;;;20.28;80.29
32243;BME280;18731;42.830;24.390;2023-08-06T04:04:36;93364.31;;;20.40;79.45
32243;BME280;18731;42.830;24.390;2023-08-06T04:07:02;93360.97;;;20.52;79.33
32243;BME280;18731;42.830;24.390;2023-08-06T04:09:28;93360.06;;;20.59;78.59
32243;BME280;18731;42.830;24.390;2023-08-06T04:11:54;93375.09;;;20.64;78.41
32243;BME280;18731;42.830;24.390;2023-08-06T04:14:20;93356.75;;;20.51;78.92
32243;BME280;18731;42.830;24.390;2023-08-06T04:16:45;93362.16;;;20.71;79.17
32243;BME280;18731;42.830;24.390;2023-08-06T04:19:11;93360.13;;;20.75;78.79
32243;BME280;18731;42.830;24.390;2023-08-06T04:21:37;93356.44;;;20.85;77.74
32243;BME280;18731;42.830;24.390;2023-08-06T04:24:03;93350.16;;;20.52;79.08
32243;BME280;18731;42.830;24.390;2023-08-06T04:26:28;93356.41;;;20.49;79.94
32243;BME280;18731;42.830;24.390;2023-08-06T04:28:54;93349.31;;;20.55;78.61
32243;BME280;18731;42.830;24.390;2023-08-06T04:31:21;93358.81;;;20.64;79.65
32243;BME280;18731;42.830;24.390;2023-08-06T04:33:47;93347.06;;;20.70;78.61
32243;BME280;18731;42.830;24.390;2023-08-06T04:36:12;93342.06;;;20.69;78.80
32243;BME280;18731;42.830;24.390;2023-08-06T04:38:38;93341.91;;;20.76;79.34
32243;BME280;18731;42.830;24.390;2023-08-06T04:41:03;93338.66;;;20.84;78.36
32243;BME280;18731;42.830;24.390;2023-08-06T04:43:29;93340.44;;;20.91;78.25
32243;BME280;18731;42.830;24.390;2023-08-06T04:45:55;93329.41;;;20.82;78.24
32243;BME280;18731;42.830;24.390;2023-08-06T04:48:22;93326.97;;;20.88;78.53
32243;BME280;18731;42.830;24.390;2023-08-06T04:50:49;93338.25;;;21.02;77.77
32243;BME280;18731;42.830;24.390;2023-08-06T04:53:15;93331.16;;;21.08;76.60
32243;BME280;18731;42.830;24.390;2023-08-06T04:55:41;93331.06;;;21.12;76.59
32243;BME280;18731;42.830;24.390;2023-08-06T04:58:09;93338.94;;;21.06;76.81
32243;BME280;18731;42.830;24.390;2023-08-06T05:00:35;93333.44;;;21.10;77.78
32243;BME280;18731;42.830;24.390;2023-08-06T05:03:00;93330.81;;;21.06;77.19
32243;BME280;18731;42.830;24.390;2023-08-06T05:05:27;93341.81;;;20.99;77.87
32243;BME280;18731;42.830;24.390;2023-08-06T05:07:54;93319.16;;;20.90;77.78
32243;BME280;18731;42.830;24.390;2023-08-06T05:10:20;93336.28;;;20.86;77.65
32243;BME280;18731;42.830;24.390;2023-08-06T05:12:46;93332.75;;;20.70;78.56
32243;BME280;18731;42.830;24.390;2023-08-06T05:15:11;93334.19;;;20.74;78.46
32243;BME280;18731;42.830;24.390;2023-08-06T05:17:37;93342.06;;;20.69;78.86
32243;BME280;18731;42.830;24.390;2023-08-06T05:20:03;93333.66;;;20.63;79.84
32243;BME280;18731;42.830;24.390;2023-08-06T05:22:28;93334.75;;;20.66;80.70
32243;BME280;18731;42.830;24.390;2023-08-06T05:24:54;93327.81;;;20.65;80.18
32243;BME280;18731;42.830;24.390;2023-08-06T05:27:19;93342.81;;;20.69;79.59
32243;BME280;18731;42.830;24.390;2023-08-06T05:29:45;93349.16;;;20.63;80.33
32243;BME280;18731;42.830;24.390;2023-08-06T05:32:11;93348.28;;;20.49;80.75
32243;BME280;18731;42.830;24.390;2023-08-06T05:34:36;93349.78;;;20.31;81.60
32243;BME280;18731;42.830;24.390;2023-08-06T05:37:03;93347.13;;;20.27;82.33
32243;BME280;18731;42.830;24.390;2023-08-06T05:39:29;93339.13;;;20.20;82.60
32243;BME280;18731;42.830;24.390;2023-08-06T05:41:55;93343.03;;;20.19;83.24
32243;BME280;18731;42.830;24.390;2023-08-06T05:44:21;93349.69;;;19.95;84.10
32243;BME280;18731;42.830;24.390;2023-08-06T05:46:47;93366.03;;;19.87;85.15
32243;BME280;18731;42.830;24.390;2023-08-06T05:49:12;93383.25;;;19.77;83.63
32243;BME280;18731;42.830;24.390;2023-08-06T05:51:39;93410.66;;;19.56;84.84
32243;BME280;18731;42.830;24.390;2023-08-06T05:54:09;93427.06;;;19.42;87.04
32243;BME280;18731;42.830;24.390;2023-08-06T05:57:33;93409.41;;;19.34;88.19
32243;BME280;18731;42.830;24.390;2023-08-06T06:00:04;93419.19;;;19.54;89.59
32243;BME280;18731;42.830;24.390;2023-08-06T06:02:31;93398.44;;;19.44;90.52
32243;BME280;18731;42.830;24.390;2023-08-06T06:04:57;93376.03;;;19.44;89.88
32243;BME280;18731;42.830;24.390;2023-08-06T06:07:22;93365.72;;;19.62;88.53
32243;BME280;18731;42.830;24.390;2023-08-06T06:09:48;93347.81;;;19.68;87.81
32243;BME280;18731;42.830;24.390;2023-08-06T06:12:13;93334.88;;;19.56;88.25
32243;BME280;18731;42.830;24.390;2023-08-06T06:14:39;93322.16;;;19.53;87.80
32243;BME280;18731;42.830;24.390;2023-08-06T06:17:04;93339.03;;;19.37;87.88
32243;BME280;18731;42.830;24.390;2023-08-06T06:19:30;93344.50;;;19.34;88.94
32243;BME280;18731;42.830;24.390;2023-08-06T06:21:56;93341.91;;;19.50;89.37
32243;BME280;18731;42.830;24.390;2023-08-06T06:24:23;93333.81;;;19.73;91.02
32243;BME280;18731;42.830;24.390;2023-08-06T06:26:48;93322.09;;;19.80;90.68
32243;BME280;18731;42.830;24.390;2023-08-06T06:29:14;93327.19;;;19.98;88.51
32243;BME280;18731;42.830;24.390;2023-08-06T06:31:39;93328.72;;;19.99;88.26
32243;BME280;18731;42.830;24.390;2023-08-06T06:34:05;93302.19;;;20.10;87.05
32243;BME280;18731;42.830;24.390;2023-08-06T06:36:30;93296.75;;;20.10;85.85
32243;BME280;18731;42.830;24.390;2023-08-06T06:38:56;93292.41;;;20.16;85.31
32243;BME280;18731;42.830;24.390;2023-08-06T06:41:22;93297.19;;;20.28;84.59
32243;BME280;18731;42.830;24.390;2023-08-06T06:43:47;93310.94;;;20.37;84.15
32243;BME280;18731;42.830;24.390;2023-08-06T06:46:13;93338.00;;;20.41;83.93
32243;BME280;18731;42.830;24.390;2023-08-06T06:48:38;93323.03;;;20.33;84.17
32243;BME280;18731;42.830;24.390;2023-08-06T06:51:04;93339.09;;;20.43;84.77
32243;BME280;18731;42.830;24.390;2023-08-06T06:53:30;93351.13;;;20.42;83.23
32243;BME280;18731;42.830;24.390;2023-08-06T06:56:01;93342.50;;;20.47;82.75
32243;BME280;18731;42.830;24.390;2023-08-06T06:58:27;93350.88;;;20.33;83.53
32243;BME280;18731;42.830;24.390;2023-08-06T07:00:52;93348.00;;;20.44;83.65
32243;BME280;18731;42.830;24.390;2023-08-06T07:03:20;93348.13;;;20.57;85.73
32243;BME280;18731;42.830;24.390;2023-08-06T07:05:46;93361.31;;;20.35;85.28
32243;BME280;18731;42.830;24.390;2023-08-06T07:08:12;93372.91;;;20.35;84.64
32243;BME280;18731;42.830;24.390;2023-08-06T07:10:40;93354.25;;;20.41;84.88
32243;BME280;18731;42.830;24.390;2023-08-06T07:13:05;93354.03;;;20.51;85.34
32243;BME280;18731;42.830;24.390;2023-08-06T07:15:31;93350.84;;;20.57;85.91
32243;BME280;18731;42.830;24.390;2023-08-06T07:17:57;93347.84;;;20.51;84.92
32243;BME280;18731;42.830;24.390;2023-08-06T07:20:22;93355.28;;;20.67;83.42
32243;BME280;18731;42.830;24.390;2023-08-06T07:22:48;93374.66;;;20.65;83.91
32243;BME280;18731;42.830;24.390;2023-08-06T07:25:15;93381.13;;;20.51;84.59
32243;BME280;18731;42.830;24.390;2023-08-06T07:27:41;93373.06;;;20.48;86.03
32243;BME280;18731;42.830;24.390;2023-08-06T07:30:07;93377.81;;;20.44;85.11
32243;BME280;18731;42.830;24.390;2023-08-06T07:32:33;93383.91;;;20.48;84.53
32243;BME280;18731;42.830;24.390;2023-08-06T07:34:59;93381.69;;;20.63;83.73
32243;BME280;18731;42.830;24.390;2023-08-06T07:37:28;93364.19;;;20.47;83.26
32243;BME280;18731;42.830;24.390;2023-08-06T07:39:57;93378.16;;;20.46;83.66
32243;BME280;18731;42.830;24.390;2023-08-06T07:42:22;93392.00;;;20.28;84.35
32243;BME280;18731;42.830;24.390;2023-08-06T07:44:58;93388.47;;;20.31;84.58
32243;BME280;18731;42.830;24.390;2023-08-06T07:47:24;93385.91;;;20.24;85.76
32243;BME280;18731;42.830;24.390;2023-08-06T07:49:50;93379.16;;;20.32;86.23
32243;BME280;18731;42.830;24.390;2023-08-06T07:52:16;93384.19;;;20.53;85.46
32243;BME280;18731;42.830;24.390;2023-08-06T07:54:42;93386.97;;;20.70;84.32
32243;BME280;18731;42.830;24.390;2023-08-06T07:57:07;93383.00;;;20.74;81.70
32243;BME280;18731;42.830;24.390;2023-08-06T07:59:33;93381.47;;;20.93;82.09
32243;BME280;18731;42.830;24.390;2023-08-06T08:02:00;93393.72;;;21.17;84.12
32243;BME280;18731;42.830;24.390;2023-08-06T08:04:26;93379.69;;;21.23;82.75
32243;BME280;18731;42.830;24.390;2023-08-06T08:06:51;93386.50;;;21.31;82.79
32243;BME280;18731;42.830;24.390;2023-08-06T08:09:17;93393.72;;;21.37;82.02
32243;BME280;18731;42.830;24.390;2023-08-06T08:11:43;93391.16;;;21.46;81.59
32243;BME280;18731;42.830;24.390;2023-08-06T08:14:09;93402.88;;;21.60;79.77
32243;BME280;18731;42.830;24.390;2023-08-06T08:16:34;93393.03;;;21.66;78.74
32243;BME280;18731;42.830;24.390;2023-08-06T08:19:00;93397.88;;;21.74;77.42
32243;BME280;18731;42.830;24.390;2023-08-06T08:21:25;93389.03;;;21.87;77.18
32243;BME280;18731;42.830;24.390;2023-08-06T08:23:51;93399.91;;;21.87;77.35
32243;BME280;18731;42.830;24.390;2023-08-06T08:26:17;93402.53;;;21.90;76.76
32243;BME280;18731;42.830;24.390;2023-08-06T08:28:43;93397.88;;;21.91;75.83
32243;BME280;18731;42.830;24.390;2023-08-06T08:31:09;93394.56;;;21.83;75.49
32243;BME280;18731;42.830;24.390;2023-08-06T08:33:37;93393.53;;;21.77;75.66
32243;BME280;18731;42.830;24.390;2023-08-06T08:36:03;93379.63;;;21.75;76.30
32243;BME280;18731;42.830;24.390;2023-08-06T08:38:29;93396.34;;;21.73;76.28
32243;BME280;18731;42.830;24.390;2023-08-06T08:40:55;93401.44;;;21.55;77.96
32243;BME280;18731;42.830;24.390;2023-08-06T08:43:21;93400.94;;;21.60;79.47
32243;BME280;18731;42.830;24.390;2023-08-06T08:45:50;93396.34;;;21.57;80.35
32243;BME280;18731;42.830;24.390;2023-08-06T08:48:18;93393.38;;;21.68;78.70
32243;BME280;18731;42.830;24.390;2023-08-06T08:50:48;93393.88;;;21.63;78.91
32243;BME280;18731;42.830;24.390;2023-08-06T08:53:15;93385.75;;;21.63;78.51
32243;BME280;18731;42.830;24.390;2023-08-06T08:55:42;93381.50;;;21.62;76.72
32243;BME280;18731;42.830;24.390;2023-08-06T08:58:08;93374.72;;;21.70;77.15
32243;BME280;18731;42.830;24.390;2023-08-06T09:00:34;93369.34;;;21.82;77.74
32243;BME280;18731;42.830;24.390;2023-08-06T09:03:02;93362.91;;;21.76;79.16
32243;BME280;18731;42.830;24.390;2023-08-06T09:05:30;93369.56;;;22.21;75.60
32243;BME280;18731;42.830;24.390;2023-08-06T09:08:02;93384.44;;;22.45;75.63
32243;BME280;18731;42.830;24.390;2023-08-06T09:10:28;93391.34;;;22.62;76.27
32243;BME280;18731;42.830;24.390;2023-08-06T09:12:55;93394.06;;;22.62;72.76
32243;BME280;18731;42.830;24.390;2023-08-06T09:15:24;93396.66;;;22.82;71.79
32243;BME280;18731;42.830;24.390;2023-08-06T09:17:51;93392.06;;;23.46;71.92
32243;BME280;18731;42.830;24.390;2023-08-06T09:20:17;93375.00;;;24.05;70.60
32243;BME280;18731;42.830;24.390;2023-08-06T09:22:43;93375.59;;;24.35;64.58
32243;BME280;18731;42.830;24.390;2023-08-06T09:25:09;93375.47;;;24.39;65.27
32243;BME280;18731;42.830;24.390;2023-08-06T09:27:38;93374.59;;;24.63;68.13
32243;BME280;18731;42.830;24.390;2023-08-06T09:30:07;93381.19;;;24.53;65.37
32243;BME280;18731;42.830;24.390;2023-08-06T09:32:46;93388.66;;;24.62;65.55
32243;BME280;18731;42.830;24.390;2023-08-06T09:35:18;93387.53;;;24.72;63.12
32243;BME280;18731;42.830;24.390;2023-08-06T09:37:44;93391.84;;;24.82;62.98
32243;BME280;18731;42.830;24.390;2023-08-06T09:40:29;93389.66;;;25.21;63.29
32243;BME280;18731;42.830;24.390;2023-08-06T09:42:55;93384.28;;;25.39;59.96
32243;BME280;18731;42.830;24.390;2023-08-06T09:45:22;93377.53;;;25.22;59.77
32243;BME280;18731;42.830;24.390;2023-08-06T09:47:49;93378.09;;;25.17;60.40
32243;BME280;18731;42.830;24.390;2023-08-06T09:50:18;93375.59;;;25.00;60.79
32243;BME280;18731;42.830;24.390;2023-08-06T09:52:45;93385.03;;;25.09;64.67
32243;BME280;18731;42.830;24.390;2023-08-06T09:55:12;93369.75;;;25.51;59.44
32243;BME280;18731;42.830;24.390;2023-08-06T09:57:40;93368.47;;;25.34;57.04
32243;BME280;18731;42.830;24.390;2023-08-06T10:00:08;93355.88;;;25.68;57.03
32243;BME280;18731;42.830;24.390;2023-08-06T10:02:38;93364.41;;;25.88;56.20
32243;BME280;18731;42.830;24.390;2023-08-06T10:05:09;93357.19;;;26.12;58.18
32243;BME280;18731;42.830;24.390;2023-08-06T10:07:35;93364.16;;;26.04;56.38
32243;BME280;18731;42.830;24.390;2023-08-06T10:10:02;93364.47;;;26.15;54.45
32243;BME280;18731;42.830;24.390;2023-08-06T10:12:32;93369.53;;;26.53;55.77
32243;BME280;18731;42.830;24.390;2023-08-06T10:15:01;93367.66;;;26.96;52.40
32243;BME280;18731;42.830;24.390;2023-08-06T10:17:31;93348.16;;;27.54;54.34
32243;BME280;18731;42.830;24.390;2023-08-06T10:19:59;93356.66;;;27.66;51.96
32243;BME280;18731;42.830;24.390;2023-08-06T10:22:24;93350.78;;;27.49;51.00
32243;BME280;18731;42.830;24.390;2023-08-06T10:24:57;93342.78;;;27.27;51.85
32243;BME280;18731;42.830;24.390;2023-08-06T10:27:32;93341.03;;;26.97;53.48
32243;BME280;18731;42.830;24.390;2023-08-06T10:30:27;93341.03;;;26.97;53.96
32243;BME280;18731;42.830;24.390;2023-08-06T10:32:55;93344.09;;;26.89;55.19
32243;BME280;18731;42.830;24.390;2023-08-06T10:35:47;93338.34;;;26.69;54.30
32243;BME280;18731;42.830;24.390;2023-08-06T10:38:20;93331.97;;;26.72;53.88
32243;BME280;18731;42.830;24.390;2023-08-06T10:43:33;93333.66;;;26.61;53.80
32243;BME280;18731;42.830;24.390;2023-08-06T10:46:02;93344.75;;;26.48;54.49
32243;BME280;18731;42.830;24.390;2023-08-06T10:48:38;93332.28;;;26.47;55.67
32243;BME280;18731;42.830;24.390;2023-08-06T10:51:12;93330.59;;;26.31;54.60
32243;BME280;18731;42.830;24.390;2023-08-06T10:53:42;93345.34;;;26.24;57.12
32243;BME280;18731;42.830;24.390;2023-08-06T10:56:21;93342.25;;;25.95;55.33
32243;BME280;18731;42.830;24.390;2023-08-06T10:58:57;93337.44;;;26.17;55.28
32243;BME280;18731;42.830;24.390;2023-08-06T11:01:23;93336.53;;;26.30;56.78
32243;BME280;18731;42.830;24.390;2023-08-06T11:03:50;93328.06;;;26.37;57.44
32243;BME280;18731;42.830;24.390;2023-08-06T11:06:22;93342.31;;;26.68;55.50
32243;BME280;18731;42.830;24.390;2023-08-06T11:08:50;93351.06;;;27.09;55.12
32243;BME280;18731;42.830;24.390;2023-08-06T11:11:17;93342.28;;;26.86;52.41
32243;BME280;18731;42.830;24.390;2023-08-06T11:13:45;93349.91;;;26.73;53.89
32243;BME280;18731;42.830;24.390;2023-08-06T11:16:13;93351.13;;;26.72;54.42
32243;BME280;18731;42.830;24.390;2023-08-06T11:18:40;93347.34;;;26.61;53.28
32243;BME280;18731;42.830;24.390;2023-08-06T11:21:07;93354.50;;;26.40;55.17
32243;BME280;18731;42.830;24.390;2023-08-06T11:23:34;93322.41;;;26.13;55.03
32243;BME280;18731;42.830;24.390;2023-08-06T11:26:00;93358.44;;;26.48;56.87
32243;BME280;18731;42.830;24.390;2023-08-06T11:28:26;93366.94;;;26.59;54.34
32243;BME280;18731;42.830;24.390;2023-08-06T11:30:52;93364.22;;;26.59;54.83
32243;BME280;18731;42.830;24.390;2023-08-06T11:33:25;93362.38;;;26.56;53.81
32243;BME280;18731;42.830;24.390;2023-08-06T11:35:56;93352.16;;;26.84;53.25
32243;BME280;18731;42.830;24.390;2023-08-06T11:38:33;93354.56;;;27.51;51.13
32243;BME280;18731;42.830;24.390;2023-08-06T11:40:59;93346.34;;;27.51;50.78
32243;BME280;18731;42.830;24.390;2023-08-06T11:43:24;93344.81;;;27.50;50.98
32243;BME280;18731;42.830;24.390;2023-08-06T11:45:50;93342.91;;;27.99;49.75
32243;BME280;18731;42.830;24.390;2023-08-06T11:48:17;93335.09;;;28.30;48.53
32243;BME280;18731;42.830;24.390;2023-08-06T11:50:43;93333.38;;;28.33;48.76
32243;BME280;18731;42.830;24.390;2023-08-06T11:53:12;93347.06;;;29.10;48.20
32243;BME280;18731;42.830;24.390;2023-08-06T11:55:39;93342.66;;;29.62;46.60
32243;BME280;18731;42.830;24.390;2023-08-06T11:58:05;93351.13;;;29.29;45.46
32243;BME280;18731;42.830;24.390;2023-08-06T12:00:31;93366.25;;;28.42;47.80
32243;BME280;18731;42.830;24.390;2023-08-06T12:02:57;93364.44;;;27.91;49.37
32243;BME280;18731;42.830;24.390;2023-08-06T12:05:28;93351.31;;;27.29;52.43
32243;BME280;18731;42.830;24.390;2023-08-06T12:07:58;93363.84;;;27.12;50.51
32243;BME280;18731;42.830;24.390;2023-08-06T12:10:26;93373.59;;;27.04;50.95
32243;BME280;18731;42.830;24.390;2023-08-06T12:12:52;93363.88;;;26.84;52.78
32243;BME280;18731;42.830;24.390;2023-08-06T12:15:18;93357.81;;;26.80;50.59
32243;BME280;18731;42.830;24.390;2023-08-06T12:17:44;93376.97;;;26.62;50.84
32243;BME280;18731;42.830;24.390;2023-08-06T12:20:10;93365.59;;;26.36;51.03
32243;BME280;18731;42.830;24.390;2023-08-06T12:22:37;93369.03;;;26.09;51.98
32243;BME280;18731;42.830;24.390;2023-08-06T12:25:06;93359.88;;;25.94;52.91
32243;BME280;18731;42.830;24.390;2023-08-06T12:27:37;93341.53;;;25.54;54.05
32243;BME280;18731;42.830;24.390;2023-08-06T12:30:03;93381.53;;;25.70;54.79
32243;BME280;18731;42.830;24.390;2023-08-06T12:32:29;93387.09;;;25.57;54.78
32243;BME280;18731;42.830;24.390;2023-08-06T12:34:55;93381.09;;;25.41;55.57
32243;BME280;18731;42.830;24.390;2023-08-06T12:37:21;93382.72;;;25.29;57.09
32243;BME280;18731;42.830;24.390;2023-08-06T12:39:47;93385.44;;;25.29;55.31
32243;BME280;18731;42.830;24.390;2023-08-06T12:42:12;93394.53;;;25.26;57.82
32243;BME280;18731;42.830;24.390;2023-08-06T12:44:38;93394.22;;;25.24;60.07
32243;BME280;18731;42.830;24.390;2023-08-06T12:47:04;93394.94;;;24.93;59.76
32243;BME280;18731;42.830;24.390;2023-08-06T12:49:30;93402.94;;;24.88;60.02
32243;BME280;18731;42.830;24.390;2023-08-06T12:51:57;93396.16;;;24.92;59.22
32243;BME280;18731;42.830;24.390;2023-08-06T12:54:26;93401.03;;;25.19;59.11
32243;BME280;18731;42.830;24.390;2023-08-06T12:56:52;93397.97;;;25.48;59.16
32243;BME280;18731;42.830;24.390;2023-08-06T12:59:19;93415.81;;;25.31;58.03
32243;BME280;18731;42.830;24.390;2023-08-06T13:01:45;93404.56;;;25.29;57.67
32243;BME280;18731;42.830;24.390;2023-08-06T13:04:12;93401.75;;;25.11;58.49
32243;BME280;18731;42.830;24.390;2023-08-06T13:06:38;93402.91;;;25.00;58.65
32243;BME280;18731;42.830;24.390;2023-08-06T13:09:05;93414.81;;;25.16;58.10
32243;BME280;18731;42.830;24.390;2023-08-06T13:11:32;93410.00;;;24.98;56.91
32243;BME280;18731;42.830;24.390;2023-08-06T13:14:04;93413.09;;;24.87;56.85
32243;BME280;18731;42.830;24.390;2023-08-06T13:16:30;93408.47;;;24.75;58.24
32243;BME280;18731;42.830;24.390;2023-08-06T13:18:56;93411.50;;;24.77;59.94
32243;BME280;18731;42.830;24.390;2023-08-06T13:21:22;93408.72;;;24.90;60.29
32243;BME280;18731;42.830;24.390;2023-08-06T13:23:47;93406.16;;;24.95;58.55
32243;BME280;18731;42.830;24.390;2023-08-06T13:26:13;93412.41;;;25.18;57.34
32243;BME280;18731;42.830;24.390;2023-08-06T13:28:41;93408.56;;;25.37;57.28
32243;BME280;18731;42.830;24.390;2023-08-06T13:31:07;93401.03;;;25.50;56.58
32243;BME280;18731;42.830;24.390;2023-08-06T13:33:32;93395.00;;;25.64;56.65
32243;BME280;18731;42.830;24.390;2023-08-06T13:35:58;93403.28;;;25.83;55.55
32243;BME280;18731;42.830;24.390;2023-08-06T13:38:23;93391.13;;;25.84;54.44
32243;BME280;18731;42.830;24.390;2023-08-06T13:40:49;93402.75;;;26.06;54.49
32243;BME280;18731;42.830;24.390;2023-08-06T13:43:15;93402.13;;;26.02;53.01
32243;BME280;18731;42.830;24.390;2023-08-06T13:45:42;93392.53;;;25.57;52.32
32243;BME280;18731;42.830;24.390;2023-08-06T13:48:09;93394.28;;;25.73;52.61
32243;BME280;18731;42.830;24.390;2023-08-06T13:50:36;93388.38;;;25.75;52.99
32243;BME280;18731;42.830;24.390;2023-08-06T13:53:02;93387.16;;;25.76;54.33
32243;BME280;18731;42.830;24.390;2023-08-06T13:55:28;93389.78;;;25.88;54.95
32243;BME280;18731;42.830;24.390;2023-08-06T13:57:53;93382.09;;;26.14;51.62
32243;BME280;18731;42.830;24.390;2023-08-06T14:00:19;93388.38;;;26.33;51.78
32243;BME280;18731;42.830;24.390;2023-08-06T14:02:45;93387.00;;;26.47;48.58
32243;BME280;18731;42.830;24.390;2023-08-06T14:05:10;93387.31;;;26.58;49.76
32243;BME280;18731;42.830;24.390;2023-08-06T14:07:36;93380.91;;;26.79;50.66
32243;BME280;18731;42.830;24.390;2023-08-06T14:10:02;93381.66;;;27.07;52.41
32243;BME280;18731;42.830;24.390;2023-08-06T14:12:28;93396.69;;;27.12;50.98
32243;BME280;18731;42.830;24.390;2023-08-06T14:14:53;93396.69;;;27.21;48.82
32243;BME280;18731;42.830;24.390;2023-08-06T14:17:19;93394.47;;;27.43;50.51
32243;BME280;18731;42.830;24.390;2023-08-06T14:19:44;93401.78;;;27.46;49.10
32243;BME280;18731;42.830;24.390;2023-08-06T14:22:10;93385.09;;;27.26;47.70
32243;BME280;18731;42.830;24.390;2023-08-06T14:24:35;93402.19;;;27.12;51.74
32243;BME280;18731;42.830;24.390;2023-08-06T14:27:01;93409.50;;;26.87;54.39
32243;BME280;18731;42.830;24.390;2023-08-06T14:29:29;93395.50;;;26.31;56.44
32243;BME280;18731;42.830;24.390;2023-08-06T14:31:55;93398.66;;;26.20;56.20
32243;BME280;18731;42.830;24.390;2023-08-06T14:34:20;93397.94;;;25.70;54.61
32243;BME280;18731;42.830;24.390;2023-08-06T14:36:46;93397.78;;;25.74;56.26
32243;BME280;18731;42.830;24.390;2023-08-06T14:39:12;93387.34;;;25.81;57.29
32243;BME280;18731;42.830;24.390;2023-08-06T14:41:37;93387.34;;;25.50;56.25
32243;BME280;18731;42.830;24.390;2023-08-06T14:44:03;93381.59;;;25.48;57.63
32243;BME280;18731;42.830;24.390;2023-08-06T14:46:29;93393.94;;;25.62;58.11
32243;BME280;18731;42.830;24.390;2023-08-06T14:48:54;93391.72;;;25.39;58.92
32243;BME280;18731;42.830;24.390;2023-08-06T14:51:20;93397.16;;;25.08;58.70
32243;BME280;18731;42.830;24.390;2023-08-06T14:53:46;93398.88;;;24.92;59.31
32243;BME280;18731;42.830;24.390;2023-08-06T14:56:12;93386.88;;;24.90;58.68
32243;BME280;18731;42.830;24.390;2023-08-06T14:58:37;93394.50;;;24.95;59.10
32243;BME280;18731;42.830;24.390;2023-08-06T15:01:03;93396.22;;;25.02;58.90
32243;BME280;18731;42.830;24.390;2023-08-06T15:03:28;93398.47;;;25.25;60.29
32243;BME280;18731;42.830;24.390;2023-08-06T15:05:56;93392.03;;;25.41;56.84
32243;BME280;18731;42.830;24.390;2023-08-06T15:08:22;93406.13;;;25.39;57.30
32243;BME280;18731;42.830;24.390;2023-08-06T15:10:53;93402.22;;;25.49;56.21
32243;BME280;18731;42.830;24.390;2023-08-06T15:13:19;93405.53;;;25.75;56.10
32243;BME280;18731;42.830;24.390;2023-08-06T15:15:51;93401.38;;;25.61;56.00
32243;BME280;18731;42.830;24.390;2023-08-06T15:18:17;93400.47;;;25.03;58.62
32243;BME280;18731;42.830;24.390;2023-08-06T15:20:44;93402.81;;;24.91;59.83
32243;BME280;18731;42.830;24.390;2023-08-06T15:23:09;93419.31;;;24.66;60.43
32243;BME280;18731;42.830;24.390;2023-08-06T15:25:35;93409.31;;;24.28;60.11
32243;BME280;18731;42.830;24.390;2023-08-06T15:28:01;93401.97;;;24.38;60.15
32243;BME280;18731;42.830;24.390;2023-08-06T15:30:26;93415.41;;;24.32;61.83
32243;BME280;18731;42.830;24.390;2023-08-06T15:32:52;93409.31;;;24.28;61.72
32243;BME280;18731;42.830;24.390;2023-08-06T15:35:17;93394.59;;;24.13;61.53
32243;BME280;18731;42.830;24.390;2023-08-06T15:37:43;93407.59;;;24.09;63.60
32243;BME280;18731;42.830;24.390;2023-08-06T15:40:09;93411.53;;;24.08;62.75
32243;BME280;18731;42.830;24.390;2023-08-06T15:42:35;93401.72;;;23.98;62.86
32243;BME280;18731;42.830;24.390;2023-08-06T15:45:01;93395.16;;;24.08;63.00
32243;BME280;18731;42.830;24.390;2023-08-06T15:47:28;93395.69;;;24.16;62.39
32243;BME280;18731;42.830;24.390;2023-08-06T15:49:54;93397.94;;;23.83;62.84
32243;BME280;18731;42.830;24.390;2023-08-06T15:52:20;93400.78;;;23.79;64.34